Sv.knyaz Vladimir — UBKI2 — position and weather

sailwx.info

Track history (hours):
 
Tides and Currents Weather Stations Pressure Air Temp Water Temp Dewpoint Dewpoint Depression Visibility Wind Speed Wind Dir Waves Ship Positions

Sv.knyaz Vladimir

Last reported at 2015-May-06 00:12 UTC. Time now 2015-May-07 05:37 UTC.
Position N 36°01' E 023°60'.

Length 128 m; draft 6.4 m.

Type: Cargo ship. MMSI: 273350360.

Date/timePositionNaut miles runAvg speedWind from/ knotsBaromVisibWave heightAir tempDewpointWater temp
2015-May-06 00:12N 36°01' E 023°60'25 9.5
2015-May-05 21:33N 36°01' E 024°31'9 9.3
2015-May-05 20:34N 36°01' E 024°42'9 9.3
2015-May-05 19:33N 36°01' E 024°54'10 9.7
2015-May-05 18:33N 36°01' E 025°06'10 9.8
2015-May-05 17:33N 36°01' E 025°18'11 9.5
2015-May-05 16:24N 36°01' E 025°32'8 9.3
2015-May-05 15:33N 36°01' E 025°41'9 9.2
2015-May-05 14:33N 36°01' E 025°53'9 9.4
2015-May-05 13:33N 36°01' E 026°04'1010.0
2015-May-05 12:33N 36°01' E 026°17'10 9.6
2015-May-05 11:31N 36°01' E 026°29'9 9.3
2015-May-05 10:31N 36°01' E 026°40'9 9.4
2015-May-05 09:33N 36°01' E 026°52'9 9.1
2015-May-05 08:33N 35°60' E 027°03'9 9.2
2015-May-05 07:33N 35°57' E 027°14'19 9.2
2015-May-05 05:31N 35°51' E 027°36'  
2015-Apr-27 05:33N 36°30' E 027°49'10 8.6
2015-Apr-27 04:26N 36°32' E 027°37'  
Track history (hours):
 
Tides and Currents Weather Stations Pressure Air Temp Water Temp Dewpoint Dewpoint Depression Visibility Wind Speed Wind Dir Waves Ship Positions

Sv.knyaz Vladimir

Last reported at 2015-May-06 00:12 UTC. Time now 2015-May-07 05:37 UTC.
Position N 36°01' E 023°60'.

Length 128 m; draft 6.4 m.

Type: Cargo ship. MMSI: 273350360.

Date/timePositionNaut miles runAvg speedWind from/ knotsBaromVisibWave heightAir tempDewpointWater temp
2015-May-06 00:12N 36°01' E 023°60'25 9.5
2015-May-05 21:33N 36°01' E 024°31'9 9.3
2015-May-05 20:34N 36°01' E 024°42'9 9.3
2015-May-05 19:33N 36°01' E 024°54'10 9.7
2015-May-05 18:33N 36°01' E 025°06'10 9.8
2015-May-05 17:33N 36°01' E 025°18'11 9.5
2015-May-05 16:24N 36°01' E 025°32'8 9.3
2015-May-05 15:33N 36°01' E 025°41'9 9.2
2015-May-05 14:33N 36°01' E 025°53'9 9.4
2015-May-05 13:33N 36°01' E 026°04'1010.0
2015-May-05 12:33N 36°01' E 026°17'10 9.6
2015-May-05 11:31N 36°01' E 026°29'9 9.3
2015-May-05 10:31N 36°01' E 026°40'9 9.4
2015-May-05 09:33N 36°01' E 026°52'9 9.1
2015-May-05 08:33N 35°60' E 027°03'9 9.2
2015-May-05 07:33N 35°57' E 027°14'19 9.2
2015-May-05 05:31N 35°51' E 027°36'  
2015-Apr-27 05:33N 36°30' E 027°49'10 8.6
2015-Apr-27 04:26N 36°32' E 027°37'  

Dump ship's entire track history